Terminal Aerodrome Forecast
Issued by NWS

Home | Current Version | Previous Version | Text Only | Print | Product List | Glossary On
Versions: 1 2 3 4 5 6 7 8 9 10 11 12 13 14 15 16 17 18 19 20 21 22 23 24 25 26 27 28
000
FTUS43 KFGF 241126
TAFDVL
TAF
KDVL 241126Z 2412/2512 02012KT P6SM -RA OVC007
     FM241300 01012KT P6SM -RA OVC003
     FM241500 01013KT 4SM -RA OVC008
     FM241700 36013KT P6SM VCSH OVC008
      TEMPO 2417/2420 4SM -RA OVC003
     FM242100 35011KT P6SM VCSH OVC010
     FM250000 35010KT P6SM OVC010
     FM250900 35009KT P6SM OVC003=

USA.gov is the U.S. government's official web portal to all federal, state and local government web resources and services.